Time;durP1;ratioP1;P1;durP2;ratioP2;P2;SDS_P1;SDS_P2;PMS_P1;PMS_P2;Temp;Humidity;BMP_temperature;BMP_pressure;BME280_temperature;BME280_humidity;BME280_pressure;Samples;Min_cycle;Max_cycle;Signal;HPM_P1;HPM_P2
2021/01/01 00:00:05;;;;;;;66.27;43.37;;;5.80;99.90;;;;;;4977568;28;20416;-84
2021/01/01 00:05:52;;;;;;;75.20;46.97;;;5.70;99.90;;;;;;4977527;28;20918;-81
2021/01/01 00:08:18;;;;;;;65.00;42.87;;;5.80;99.90;;;;;;4977101;28;20460;-81
2021/01/01 00:10:44;;;;;;;69.03;40.97;;;5.70;99.90;;;;;;4977447;28;20186;-82
2021/01/01 00:13:09;;;;;;;63.97;42.77;;;5.70;99.90;;;;;;4977185;28;20177;-81
2021/01/01 00:15:35;;;;;;;58.27;41.33;;;5.70;99.90;;;;;;4977484;28;20181;-83
2021/01/01 00:18:00;;;;;;;61.57;41.07;;;5.70;99.90;;;;;;4977465;28;20181;-83
2021/01/01 00:20:26;;;;;;;70.73;42.87;;;5.80;99.90;;;;;;4977364;28;20219;-86
2021/01/01 00:22:51;;;;;;;65.17;40.73;;;5.70;99.90;;;;;;4977420;28;20177;-88
2021/01/01 00:25:17;;;;;;;63.73;38.43;;;5.70;99.90;;;;;;4977406;28;20192;-87
2021/01/01 00:27:43;;;;;;;62.60;39.83;;;5.70;99.90;;;;;;4977369;28;20182;-86
2021/01/01 00:30:11;;;;;;;65.77;40.87;;;5.70;99.90;;;;;;4977313;28;20716;-88
2021/01/01 00:32:39;;;;;;;56.00;39.27;;;5.70;99.90;;;;;;4977134;28;20187;-85
2021/01/01 00:35:05;;;;;;;58.40;37.80;;;5.70;99.90;;;;;;4977078;28;20441;-86
2021/01/01 00:37:34;;;;;;;55.50;36.63;;;5.70;99.90;;;;;;4976924;28;20429;-88
2021/01/01 00:40:00;;;;;;;49.50;35.25;;;5.70;99.90;;;;;;4976486;28;20434;-86
2021/01/01 00:42:25;;;;;;;50.97;34.80;;;5.70;99.90;;;;;;4977293;28;20191;-82
2021/01/01 00:48:13;;;;;;;56.47;36.80;;;5.80;99.90;;;;;;4976785;28;20243;-82
2021/01/01 00:50:38;;;;;;;55.30;36.90;;;5.70;99.90;;;;;;4977049;28;20801;-82
2021/01/01 00:53:04;;;;;;;50.43;35.20;;;5.70;99.90;;;;;;4976943;28;20648;-84
2021/01/01 00:55:29;;;;;;;53.73;33.67;;;5.70;99.90;;;;;;4976649;28;20237;-83
2021/01/01 00:57:56;;;;;;;56.53;34.17;;;5.70;99.90;;;;;;4977333;28;20184;-82
2021/01/01 01:00:21;;;;;;;49.83;32.93;;;5.70;99.90;;;;;;4976863;28;20185;-82
2021/01/01 01:02:47;;;;;;;49.80;34.53;;;5.70;99.90;;;;;;4977007;28;20500;-82
2021/01/01 01:05:13;;;;;;;63.93;38.37;;;5.70;99.90;;;;;;4976951;28;20615;-90
2021/01/01 01:07:38;;;;;;;53.37;35.60;;;5.70;99.90;;;;;;4975867;28;20177;-91
2021/01/01 01:10:05;;;;;;;56.97;36.40;;;5.70;99.90;;;;;;4976695;28;20300;-90
2021/01/01 01:12:31;;;;;;;53.17;36.17;;;5.70;99.90;;;;;;4976851;28;20633;-91
2021/01/01 01:14:57;;;;;;;63.53;41.67;;;5.70;99.90;;;;;;4977426;28;20465;-90
2021/01/01 01:17:23;;;;;;;74.13;45.37;;;5.70;99.90;;;;;;4977890;28;20475;-90
2021/01/01 01:19:48;;;;;;;77.40;47.97;;;5.70;99.90;;;;;;4976841;28;20170;-90
2021/01/01 01:22:13;;;;;;;71.13;48.47;;;5.70;99.90;;;;;;4979791;28;20196;-89
2021/01/01 01:24:39;;;;;;;78.20;48.33;;;5.70;99.90;;;;;;4989776;28;20180;-89
2021/01/01 01:27:04;;;;;;;87.90;52.07;;;5.70;99.90;;;;;;4989911;28;20174;-90
2021/01/01 01:29:30;;;;;;;88.77;52.70;;;5.70;99.90;;;;;;4976306;28;20558;-90
2021/01/01 01:31:55;;;;;;;85.20;53.17;;;5.70;99.90;;;;;;4976195;28;20192;-85
2021/01/01 01:34:21;;;;;;;98.73;55.93;;;5.70;99.90;;;;;;4976031;28;20181;-86
2021/01/01 01:36:46;;;;;;;91.47;55.30;;;5.70;99.90;;;;;;4975739;28;20185;-86
2021/01/01 01:39:12;;;;;;;94.20;55.53;;;5.70;99.90;;;;;;4975991;28;20184;-87
2021/01/01 01:41:38;;;;;;;93.33;55.60;;;5.70;99.90;;;;;;4976081;28;20544;-85
2021/01/01 01:44:03;;;;;;;85.20;53.20;;;5.70;99.90;;;;;;4976067;28;20205;-87
2021/01/01 01:46:39;;;;;;;97.70;60.60;;;5.70;99.90;;;;;;4975722;28;20184;-87
2021/01/01 01:49:05;;;;;;;88.80;52.47;;;5.70;99.90;;;;;;4975997;28;20567;-87
2021/01/01 01:51:32;;;;;;;85.33;51.50;;;5.70;99.90;;;;;;4975925;28;20425;-87
2021/01/01 01:53:57;;;;;;;77.17;47.10;;;5.70;99.90;;;;;;4975702;28;20193;-84
2021/01/01 01:56:23;;;;;;;86.77;48.73;;;5.70;99.90;;;;;;4975419;28;20460;-84
2021/01/01 01:58:49;;;;;;;70.90;42.57;;;5.70;99.90;;;;;;4975541;28;20172;-85
2021/01/01 02:01:15;;;;;;;72.07;45.37;;;5.70;99.90;;;;;;4975848;28;20633;-86
2021/01/01 02:03:40;;;;;;;69.00;41.53;;;5.70;99.90;;;;;;4975498;28;20170;-86
2021/01/01 02:06:06;;;;;;;77.30;43.60;;;5.70;99.90;;;;;;4975400;28;20177;-87
2021/01/01 06:31:10;;;;;;;55.13;31.90;;;5.10;99.90;;;;;;5715964;23;20552;-78
2021/01/01 06:33:36;;;;;;;54.53;31.00;;;5.10;99.90;;;;;;4993354;28;20462;-78
2021/01/01 06:36:01;;;;;;;62.30;32.27;;;5.10;99.90;;;;;;4993137;28;20420;-78
2021/01/01 06:38:37;;;;;;;51.37;30.17;;;5.10;99.90;;;;;;4993238;28;20171;-78
2021/01/01 06:41:14;;;;;;;50.27;30.53;;;5.10;99.90;;;;;;4993336;28;20199;-78
2021/01/01 06:43:54;;;;;;;49.67;30.47;;;5.10;99.90;;;;;;4993251;28;20423;-78
2021/01/01 06:46:39;;;;;;;53.47;31.07;;;5.10;99.90;;;;;;4993116;28;20574;-78
2021/01/01 06:49:28;;;;;;;50.37;30.80;;;5.10;99.90;;;;;;4993091;28;20562;-78
2021/01/01 06:52:14;;;;;;;49.30;29.57;;;5.10;99.90;;;;;;4993309;28;20840;-79
2021/01/01 06:54:54;;;;;;;60.77;31.93;;;5.10;99.90;;;;;;4993008;28;20431;-78
2021/01/01 06:57:22;;;;;;;64.88;40.72;;;5.10;99.90;;;;;;4991716;28;20523;-78
2021/01/01 06:59:48;;;;;;;51.53;32.63;;;5.10;99.90;;;;;;4993089;28;20417;-78
2021/01/01 07:02:28;;;;;;;61.67;33.47;;;5.10;99.90;;;;;;4993059;28;20834;-77
2021/01/01 07:04:54;;;;;;;60.87;32.30;;;5.10;99.90;;;;;;4993009;28;20230;-79
2021/01/01 07:07:39;;;;;;;54.40;33.23;;;5.20;99.90;;;;;;4993183;28;20460;-79
2021/01/01 07:10:06;;;;;;;55.13;33.67;;;5.20;99.90;;;;;;4992935;28;20830;-79
2021/01/01 07:12:31;;;;;;;53.73;33.73;;;5.10;99.90;;;;;;4992864;28;20515;-78
2021/01/01 07:14:57;;;;;;;58.63;35.47;;;5.10;99.90;;;;;;4993020;28;20547;-77
2021/01/01 07:17:22;;;;;;;65.20;33.33;;;5.10;99.90;;;;;;4994011;28;20180;-78
2021/01/01 07:19:48;;;;;;;57.47;32.47;;;5.10;99.90;;;;;;4994157;28;20549;-77
2021/01/01 07:22:14;;;;;;;55.90;32.60;;;5.10;99.90;;;;;;4993969;28;20270;-78
2021/01/01 07:24:42;;;;;;;63.87;34.27;;;5.10;99.90;;;;;;5016067;23;20232;-80
2021/01/01 07:27:09;;;;;;;60.20;33.10;;;5.10;99.90;;;;;;4992879;28;20423;-80
2021/01/01 07:29:34;;;;;;;59.63;34.17;;;5.00;99.90;;;;;;4992739;28;20480;-80
2021/01/01 07:32:00;;;;;;;61.37;33.47;;;5.00;99.90;;;;;;4992656;28;20503;-80
2021/01/01 07:34:25;;;;;;;63.23;35.17;;;5.00;99.90;;;;;;4992694;28;20595;-80
2021/01/01 07:36:53;;;;;;;56.77;30.93;;;5.00;99.90;;;;;;4994500;28;20172;-81
2021/01/01 07:39:26;;;;;;;54.93;33.97;;;5.00;99.90;;;;;;4996420;28;20181;-82
2021/01/01 07:42:02;;;;;;;56.73;33.80;;;5.00;99.90;;;;;;4996532;28;20419;-82
2021/01/01 07:44:28;;;;;;;61.17;35.73;;;5.00;99.90;;;;;;4996442;28;20598;-82
2021/01/01 07:46:53;;;;;;;57.93;34.03;;;5.00;99.90;;;;;;4996486;28;20848;-82
2021/01/01 07:49:19;;;;;;;63.77;36.47;;;4.90;99.90;;;;;;4996097;28;20586;-82
2021/01/01 07:51:44;;;;;;;63.23;34.63;;;4.90;99.90;;;;;;4996381;28;20177;-82
2021/01/01 07:54:10;;;;;;;53.50;31.47;;;4.90;99.90;;;;;;4996269;28;20185;-81
2021/01/01 07:56:35;;;;;;;64.13;37.30;;;4.90;99.90;;;;;;4996195;28;20188;-81
2021/01/01 07:59:01;;;;;;;55.17;31.93;;;5.00;99.90;;;;;;4996071;28;20222;-81
2021/01/01 08:01:29;;;;;;;62.90;34.60;;;5.00;99.90;;;;;;4996299;28;20275;-83
2021/01/01 08:03:55;;;;;;;64.00;40.97;;;5.00;99.90;;;;;;4995164;28;20432;-76
2021/01/01 08:06:22;;;;;;;58.63;37.37;;;5.10;99.90;;;;;;4988591;28;20640;-75
2021/01/01 08:08:49;;;;;;;66.63;35.50;;;5.10;99.90;;;;;;4982253;28;20217;-79
2021/01/01 08:11:15;;;;;;;60.53;33.10;;;5.10;99.90;;;;;;4976355;28;20490;-80
2021/01/01 08:13:40;;;;;;;57.37;32.60;;;5.20;99.90;;;;;;4981765;28;20436;-82
2021/01/01 08:16:14;;;;;;;58.10;33.13;;;5.20;99.90;;;;;;4986910;28;20205;-80
2021/01/01 08:18:40;;;;;;;50.07;31.13;;;5.20;99.90;;;;;;4985991;28;20184;-85
2021/01/01 08:21:07;;;;;;;63.67;33.43;;;5.30;99.90;;;;;;4985985;28;20478;-83
2021/01/01 08:23:51;;;;;;;61.60;33.77;;;5.30;99.90;;;;;;4984991;28;20440;-81
2021/01/01 08:26:17;;;;;;;52.13;32.57;;;5.30;99.90;;;;;;4994094;28;20925;-84
2021/01/01 08:28:43;;;;;;;45.97;29.27;;;5.30;99.90;;;;;;4995262;28;20510;-84
2021/01/01 08:31:11;;;;;;;52.73;32.80;;;5.30;99.90;;;;;;4995083;28;20434;-87
2021/01/01 08:33:39;;;;;;;53.50;31.10;;;5.30;99.90;;;;;;4995383;28;20415;-83
2021/01/01 08:36:07;;;;;;;59.90;31.60;;;5.30;99.90;;;;;;4995134;28;20578;-87
2021/01/01 08:38:33;;;;;;;52.20;30.70;;;5.20;99.90;;;;;;4994882;28;20786;-80
2021/01/01 08:40:59;;;;;;;56.50;32.47;;;5.20;99.90;;;;;;4994944;28;20535;-83
2021/01/01 08:43:26;;;;;;;56.20;32.80;;;5.20;99.90;;;;;;4995007;28;20569;-80
2021/01/01 08:45:52;;;;;;;54.70;34.00;;;5.20;99.90;;;;;;4994935;28;20455;-82
2021/01/01 08:48:18;;;;;;;59.90;31.57;;;5.30;99.90;;;;;;4993472;28;21001;-87
2021/01/01 08:50:46;;;;;;;59.63;33.50;;;5.30;99.90;;;;;;4995021;28;20578;-84
2021/01/01 08:53:12;;;;;;;51.47;32.40;;;5.30;99.90;;;;;;4995044;28;20427;-86
2021/01/01 08:55:38;;;;;;;47.83;29.80;;;5.30;99.90;;;;;;4994959;28;20440;-91
2021/01/01 08:58:17;;;;;;;55.20;32.17;;;5.40;99.90;;;;;;4994871;28;20479;-80
2021/01/01 09:00:45;;;;;;;51.40;31.70;;;5.40;99.90;;;;;;4989936;28;20181;-79
2021/01/01 09:03:20;;;;;;;60.33;32.83;;;5.40;99.90;;;;;;4975032;28;20437;-84
2021/01/01 09:05:46;;;;;;;58.00;32.10;;;5.40;99.90;;;;;;4975060;28;20428;-84
2021/01/01 09:08:12;;;;;;;51.70;32.73;;;5.40;99.90;;;;;;4974824;28;20531;-81
2021/01/01 09:10:43;;;;;;;55.10;32.90;;;5.40;99.90;;;;;;4974822;28;20598;-78
2021/01/01 09:13:13;;;;;;;51.20;32.53;;;5.40;99.90;;;;;;4974801;28;20464;-78
2021/01/01 09:15:38;;;;;;;58.43;32.47;;;5.60;99.90;;;;;;4975002;28;20499;-78
2021/01/01 09:18:08;;;;;;;48.00;31.03;;;5.60;99.90;;;;;;4974892;28;20936;-78
2021/01/01 09:20:37;;;;;;;51.23;30.83;;;5.60;99.90;;;;;;4974795;28;20174;-77
2021/01/01 09:23:03;;;;;;;51.83;31.93;;;5.50;99.90;;;;;;4975532;28;20429;-78
2021/01/01 09:25:30;;;;;;;60.83;32.90;;;5.60;99.90;;;;;;4974396;28;20465;-78
2021/01/01 09:27:57;;;;;;;57.67;31.37;;;5.60;99.90;;;;;;4974727;28;20519;-78
2021/01/01 09:30:25;;;;;;;56.00;31.30;;;5.60;99.90;;;;;;4974388;28;21050;-79
2021/01/01 09:32:59;;;;;;;53.17;32.50;;;5.60;99.90;;;;;;4974521;28;20434;-78
2021/01/01 09:35:25;;;;;;;49.80;30.07;;;5.60;99.90;;;;;;4977139;28;20521;-79
2021/01/01 09:38:04;;;;;;;67.80;31.17;;;5.70;99.90;;;;;;4983216;28;20429;-79
2021/01/01 09:40:32;;;;;;;59.40;34.93;;;5.70;99.90;;;;;;4982698;28;20491;-78
2021/01/01 09:43:01;;;;;;;52.57;31.90;;;6.00;99.90;;;;;;4983200;28;20478;-78
2021/01/01 09:45:27;;;;;;;64.40;33.60;;;5.80;99.90;;;;;;4984330;28;20518;-79
2021/01/01 09:47:52;;;;;;;57.53;33.60;;;5.80;99.90;;;;;;4981853;28;20516;-78
2021/01/01 09:50:18;;;;;;;69.90;37.83;;;5.80;99.90;;;;;;4984025;28;20270;-80
2021/01/01 09:52:43;;;;;;;60.40;33.47;;;5.80;99.90;;;;;;4982576;28;20260;-84
2021/01/01 09:55:10;;;;;;;62.53;33.70;;;5.80;99.90;;;;;;4982523;28;20227;-78
2021/01/01 09:57:38;;;;;;;56.87;32.20;;;5.80;99.90;;;;;;4983508;28;20178;-78
2021/01/01 10:00:05;;;;;;;60.47;33.30;;;5.80;99.90;;;;;;4983962;28;20795;-79
2021/01/01 10:02:31;;;;;;;65.87;32.67;;;5.90;99.90;;;;;;4984015;28;20420;-77
2021/01/01 10:04:56;;;;;;;57.67;34.00;;;5.90;99.90;;;;;;4982459;28;20797;-80
2021/01/01 10:07:22;;;;;;;67.10;34.70;;;5.90;99.90;;;;;;4982868;28;20195;-78
2021/01/01 10:09:48;;;;;;;62.20;32.70;;;5.90;99.90;;;;;;4983786;28;20640;-80
2021/01/01 10:12:14;;;;;;;65.37;34.60;;;5.90;99.90;;;;;;4981873;28;20180;-81
2021/01/01 10:14:40;;;;;;;67.37;36.87;;;5.90;99.90;;;;;;4983096;28;20174;-75
2021/01/01 10:17:06;;;;;;;67.50;32.67;;;5.90;99.90;;;;;;4983156;28;20440;-81
2021/01/01 10:19:31;;;;;;;74.10;34.63;;;5.90;99.90;;;;;;4981677;28;20432;-82
2021/01/01 10:21:57;;;;;;;64.70;36.00;;;5.90;99.90;;;;;;4978423;28;20189;-80
2021/01/01 10:24:23;;;;;;;71.23;36.37;;;5.90;99.90;;;;;;4973406;28;20252;-89
2021/01/01 10:26:49;;;;;;;79.10;40.63;;;6.00;99.90;;;;;;4973424;28;20224;-89
2021/01/01 10:29:15;;;;;;;80.90;37.07;;;6.00;99.90;;;;;;4973547;28;20216;-89
2021/01/01 10:31:41;;;;;;;84.03;39.20;;;6.00;99.90;;;;;;4973716;28;20518;-90
2021/01/01 10:34:07;;;;;;;82.97;40.30;;;6.10;99.90;;;;;;4973315;28;20948;-89
2021/01/01 10:36:33;;;;;;;78.73;40.60;;;6.00;99.90;;;;;;4973374;28;20417;-89
2021/01/01 10:38:58;;;;;;;80.67;39.73;;;6.10;99.90;;;;;;4980972;28;20703;-84
2021/01/01 10:41:24;;;;;;;88.53;40.03;;;6.10;99.90;;;;;;4981724;28;20657;-87
2021/01/01 10:43:49;;;;;;;73.13;37.37;;;6.10;99.90;;;;;;4982485;28;20192;-86
2021/01/01 10:46:15;;;;;;;79.10;38.67;;;6.10;99.90;;;;;;4986003;28;20180;-82
2021/01/01 10:48:40;;;;;;;71.87;39.47;;;6.10;99.90;;;;;;4990483;28;20211;-80
2021/01/01 10:51:06;;;;;;;74.53;38.87;;;6.00;99.90;;;;;;4977651;28;20185;-85
2021/01/01 10:53:31;;;;;;;73.53;39.07;;;6.00;99.90;;;;;;4989667;28;20256;-71
2021/01/01 10:55:57;;;;;;;83.57;39.33;;;6.00;99.90;;;;;;4988547;28;20202;-77
2021/01/01 10:58:26;;;;;;;75.87;39.30;;;6.10;99.90;;;;;;4987362;28;20538;-76
2021/01/01 11:00:55;;;;;;;74.73;38.70;;;6.20;99.90;;;;;;4991054;28;20179;-76
2021/01/01 11:03:22;;;;;;;74.63;39.33;;;6.10;99.90;;;;;;4986265;28;20424;-80
2021/01/01 11:05:47;;;;;;;72.30;37.83;;;6.20;99.90;;;;;;4998186;28;20787;-78
2021/01/01 11:08:13;;;;;;;64.47;35.40;;;6.20;99.90;;;;;;4999386;28;20416;-79
2021/01/01 11:10:39;;;;;;;149.87;112.60;;;6.30;99.90;;;;;;5010627;28;20646;-71
2021/01/01 11:13:05;;;;;;;79.57;56.93;;;7.00;99.90;;;;;;5001020;28;20206;-71
2021/01/01 12:28:13;;;;;;;53.93;30.60;;;9.20;99.90;;;;;;4996313;28;20404;-78
2021/01/01 12:30:40;;;;;;;56.33;30.50;;;9.20;99.90;;;;;;4996425;28;20766;-80
2021/01/01 12:33:08;;;;;;;57.33;32.30;;;9.30;99.90;;;;;;4996277;28;20788;-78
2021/01/01 12:35:37;;;;;;;53.07;30.73;;;9.20;99.90;;;;;;4996234;28;20912;-77
2021/01/01 12:38:04;;;;;;;56.23;32.37;;;9.20;99.90;;;;;;4995854;28;20430;-78
2021/01/01 12:40:30;;;;;;;58.10;31.77;;;9.30;99.90;;;;;;4995970;28;20729;-78
2021/01/01 12:42:59;;;;;;;51.03;30.40;;;9.30;99.90;;;;;;4995529;28;20429;-78
2021/01/01 12:45:25;;;;;;;52.40;28.80;;;9.30;99.90;;;;;;4995916;28;20553;-76
2021/01/01 12:51:12;;;;;;;55.47;31.43;;;9.30;99.90;;;;;;4995815;28;20542;-78
2021/01/01 12:57:00;;;;;;;45.93;28.03;;;9.20;99.90;;;;;;4995507;28;20164;-78
2021/01/01 12:59:25;;;;;;;66.37;32.87;;;9.30;99.90;;;;;;4995861;28;20420;-78
2021/01/01 13:01:51;;;;;;;58.70;32.40;;;9.20;99.90;;;;;;4995841;28;20173;-78
2021/01/01 13:07:38;;;;;;;53.80;31.60;;;9.20;99.90;;;;;;4995572;28;20184;-78
2021/01/01 13:10:05;;;;;;;49.43;29.47;;;9.20;99.90;;;;;;4995645;28;20479;-81
2021/01/01 13:12:31;;;;;;;53.27;31.37;;;9.10;99.90;;;;;;4995093;28;20684;-79
2021/01/01 13:14:56;;;;;;;59.93;32.37;;;9.10;99.90;;;;;;4995127;28;20550;-82
2021/01/01 13:17:22;;;;;;;48.30;29.20;;;9.20;99.90;;;;;;4995416;28;20231;-78
2021/01/01 13:19:47;;;;;;;53.40;28.70;;;9.20;99.90;;;;;;4996038;28;20180;-81
2021/01/01 13:22:13;;;;;;;49.10;28.13;;;9.20;99.90;;;;;;4995773;28;20574;-83
2021/01/01 13:24:38;;;;;;;55.30;30.00;;;9.20;99.90;;;;;;4995165;28;20225;-81
2021/01/01 13:27:05;;;;;;;54.03;29.67;;;9.20;99.90;;;;;;4996056;28;20625;-82
2021/01/01 13:29:30;;;;;;;53.03;29.30;;;9.10;99.90;;;;;;4995659;28;20676;-83
2021/01/01 13:35:19;;;;;;;48.43;26.97;;;8.90;99.90;;;;;;4995021;28;20165;-80
2021/01/01 13:37:44;;;;;;;44.93;27.03;;;9.00;99.90;;;;;;4997656;28;20503;-80
2021/01/01 13:40:10;;;;;;;48.47;25.57;;;9.10;99.90;;;;;;5000759;28;20421;-80
2021/01/01 13:45:58;;;;;;;42.87;25.33;;;9.20;99.90;;;;;;4994702;28;20467;-79
2021/01/01 13:48:23;;;;;;;44.33;25.30;;;9.20;99.90;;;;;;4995018;28;20415;-80
2021/01/01 13:50:49;;;;;;;41.90;27.20;;;9.10;99.90;;;;;;4998153;28;20192;-80
2021/01/01 13:53:14;;;;;;;47.07;26.50;;;9.00;99.90;;;;;;4998674;28;20173;-79
2021/01/01 13:55:39;;;;;;;41.93;24.27;;;9.00;99.90;;;;;;4995951;28;20181;-79
2021/01/01 13:58:05;;;;;;;43.10;25.33;;;8.90;99.90;;;;;;4994858;28;20620;-80
2021/01/01 14:00:30;;;;;;;43.80;25.60;;;8.90;99.90;;;;;;4994745;28;20201;-79
2021/01/01 14:02:56;;;;;;;38.30;25.70;;;8.90;99.90;;;;;;4994346;28;20655;-79
2021/01/01 14:05:22;;;;;;;40.77;25.20;;;8.80;99.90;;;;;;4994666;28;20169;-79
2021/01/01 14:07:48;;;;;;;36.53;22.40;;;8.80;99.90;;;;;;4994417;28;20426;-79
2021/01/01 14:10:13;;;;;;;39.10;22.13;;;8.60;99.90;;;;;;4996298;28;20220;-80
2021/01/01 14:12:39;;;;;;;42.97;23.07;;;8.50;99.90;;;;;;4994338;28;20259;-79
2021/01/01 14:15:05;;;;;;;36.03;22.90;;;8.30;99.90;;;;;;4994521;28;20276;-79
2021/01/01 14:17:30;;;;;;;39.17;23.23;;;7.90;99.90;;;;;;4994145;28;20211;-75
2021/01/01 14:19:56;;;;;;;41.27;22.93;;;7.90;99.90;;;;;;4994400;28;20432;-74
2021/01/01 14:22:21;;;;;;;43.83;23.33;;;8.00;99.90;;;;;;4994305;28;20236;-75
2021/01/01 14:24:47;;;;;;;44.67;25.70;;;8.10;99.90;;;;;;4993781;28;20232;-75
2021/01/01 14:27:12;;;;;;;49.07;28.13;;;8.00;99.90;;;;;;4995813;28;20549;-80
2021/01/01 14:29:38;;;;;;;42.33;25.30;;;8.00;99.90;;;;;;4996359;28;20209;-80
2021/01/01 14:32:04;;;;;;;44.73;23.07;;;8.00;99.90;;;;;;4994022;28;20184;-75
2021/01/01 14:34:29;;;;;;;38.07;24.97;;;7.90;99.90;;;;;;4993967;28;20181;-76
2021/01/01 14:36:55;;;;;;;45.90;24.30;;;7.90;99.90;;;;;;4993811;28;20425;-75
2021/01/01 14:39:20;;;;;;;40.90;22.93;;;7.90;99.90;;;;;;4994193;28;20177;-78
2021/01/01 14:41:51;;;;;;;43.27;22.83;;;7.80;99.90;;;;;;4994039;28;20185;-78
2021/01/01 14:44:17;;;;;;;39.87;20.73;;;7.80;99.90;;;;;;4994365;28;20519;-76
2021/01/01 14:46:42;;;;;;;39.90;22.10;;;7.70;99.90;;;;;;4994708;28;20424;-80
2021/01/01 14:49:09;;;;;;;38.80;22.87;;;7.60;99.90;;;;;;4994678;28;20258;-82
2021/01/01 14:51:37;;;;;;;37.97;21.70;;;7.50;99.90;;;;;;4995380;28;20276;-79
2021/01/01 14:54:02;;;;;;;44.20;22.63;;;7.50;99.90;;;;;;4994345;28;20447;-74
2021/01/01 14:56:34;;;;;;;38.90;25.03;;;7.50;99.90;;;;;;4994620;28;20420;-81
2021/01/01 14:58:59;;;;;;;39.60;23.77;;;7.50;99.90;;;;;;4994803;28;20260;-80
2021/01/01 15:04:47;;;;;;;40.50;23.57;;;7.40;99.90;;;;;;4998347;28;20196;-81
2021/01/01 15:07:12;;;;;;;36.90;20.23;;;7.30;99.90;;;;;;5006376;28;20425;-80
2021/01/01 15:09:38;;;;;;;39.40;21.77;;;7.30;99.90;;;;;;5010434;28;20200;-80
2021/01/01 15:12:04;;;;;;;41.80;22.17;;;7.20;99.90;;;;;;5010449;28;20177;-80
2021/01/01 15:14:29;;;;;;;44.30;22.87;;;7.20;99.90;;;;;;5001020;28;20177;-80
2021/01/01 15:16:55;;;;;;;38.83;20.53;;;7.10;99.90;;;;;;4994779;28;20459;-79
2021/01/01 15:19:20;;;;;;;39.90;20.97;;;7.10;99.90;;;;;;4993587;28;20551;-79
2021/01/01 15:21:46;;;;;;;38.40;21.40;;;7.00;99.90;;;;;;4994854;28;20181;-80
2021/01/01 15:24:14;;;;;;;41.67;23.00;;;7.00;99.90;;;;;;5004132;28;20604;-80
2021/01/01 15:26:40;;;;;;;41.80;26.03;;;7.00;99.90;;;;;;5006592;28;20486;-81
2021/01/01 15:29:06;;;;;;;47.93;22.40;;;6.90;99.90;;;;;;5012518;28;20486;-80
2021/01/01 15:34:53;;;;;;;49.00;22.00;;;6.70;99.90;;;;;;5004905;28;20408;-80
2021/01/01 15:37:19;;;;;;;38.00;20.97;;;6.80;99.90;;;;;;5009445;28;20492;-80
2021/01/01 15:43:06;;;;;;;41.27;20.43;;;6.70;99.90;;;;;;5011687;28;20580;-79
2021/01/01 15:48:54;;;;;;;36.67;19.47;;;6.70;99.90;;;;;;5005292;28;20229;-80
2021/01/01 15:54:42;;;;;;;38.47;21.50;;;6.60;99.90;;;;;;5011260;28;20163;-80
2021/01/01 16:00:30;;;;;;;39.43;21.10;;;6.70;99.90;;;;;;5017225;28;20476;-80
2021/01/01 16:02:55;;;;;;;36.00;20.20;;;6.70;99.90;;;;;;5010779;28;20424;-81
2021/01/01 16:08:45;;;;;;;37.27;20.67;;;6.40;99.90;;;;;;4996934;28;20233;-81
2021/01/01 16:14:32;;;;;;;39.80;20.67;;;6.30;99.90;;;;;;4997066;28;20783;-80
2021/01/01 16:16:57;;;;;;;42.63;21.80;;;6.30;99.90;;;;;;4997179;28;20435;-80
2021/01/01 16:19:24;;;;;;;38.17;21.83;;;6.30;99.90;;;;;;4998952;28;20183;-80
2021/01/01 16:21:49;;;;;;;34.57;20.57;;;6.30;99.90;;;;;;4997601;28;20595;-81
2021/01/01 16:27:57;;;;;;;35.83;21.13;;;6.30;99.90;;;;;;4994341;28;20247;-80
2021/01/01 16:30:22;;;;;;;35.87;21.40;;;6.30;99.90;;;;;;4999293;28;20479;-81
2021/01/01 16:32:48;;;;;;;44.60;22.77;;;6.20;99.90;;;;;;5000256;28;20588;-82
2021/01/01 16:35:13;;;;;;;34.30;20.03;;;6.20;99.90;;;;;;4997119;28;20268;-82
2021/01/01 16:37:39;;;;;;;35.03;21.67;;;6.20;99.90;;;;;;4996717;28;20169;-81
2021/01/01 16:43:27;;;;;;;36.87;19.10;;;6.10;99.90;;;;;;4996422;28;20407;-82
2021/01/01 16:45:52;;;;;;;37.80;19.67;;;6.10;99.90;;;;;;4996451;28;20415;-81
2021/01/01 16:51:41;;;;;;;32.67;20.50;;;6.00;99.90;;;;;;4996345;28;20173;-78
2021/01/01 16:57:29;;;;;;;27.13;16.73;;;6.10;99.90;;;;;;4996642;28;20403;-83
2021/01/01 17:03:16;;;;;;;28.97;16.30;;;6.00;99.90;;;;;;4998265;28;20260;-83
2021/01/01 17:05:47;;;;;;;30.90;18.97;;;6.00;99.90;;;;;;5004772;28;20445;-82
2021/01/01 17:11:34;;;;;;;31.63;17.00;;;5.90;99.90;;;;;;4998720;28;20451;-83
2021/01/01 17:17:21;;;;;;;26.07;15.67;;;6.00;99.90;;;;;;4996075;28;20208;-79
2021/01/01 17:23:09;;;;;;;28.93;16.93;;;6.00;99.90;;;;;;4996013;28;20651;-81
2021/01/01 17:25:35;;;;;;;28.60;17.23;;;6.00;99.90;;;;;;4996046;28;20428;-78
2021/01/01 17:28:00;;;;;;;29.50;17.97;;;5.90;99.90;;;;;;4995410;28;20233;-85
2021/01/01 17:30:26;;;;;;;25.13;15.50;;;6.00;99.90;;;;;;4995667;28;20614;-81
2021/01/01 17:32:52;;;;;;;27.43;16.63;;;6.00;99.90;;;;;;4995303;28;20661;-82
2021/01/01 17:35:17;;;;;;;31.90;15.77;;;6.00;99.90;;;;;;4995666;28;20507;-80
2021/01/01 17:37:43;;;;;;;27.73;15.20;;;6.00;99.90;;;;;;4995472;28;20179;-83
2021/01/01 17:40:09;;;;;;;23.43;14.67;;;6.10;99.90;;;;;;4995496;28;20177;-86
2021/01/01 17:42:39;;;;;;;24.87;17.90;;;6.00;99.90;;;;;;4995217;28;20196;-83
2021/01/01 17:48:26;;;;;;;28.57;18.93;;;6.00;99.90;;;;;;4995048;28;20470;-75
2021/01/01 17:50:51;;;;;;;36.33;19.43;;;6.20;99.90;;;;;;4994905;28;20460;-76
2021/01/01 17:53:17;;;;;;;32.83;20.80;;;6.40;99.90;;;;;;4995077;28;20260;-73
2021/01/01 17:55:43;;;;;;;41.17;31.60;;;6.60;99.90;;;;;;4995046;28;20180;-73
2021/01/01 17:58:09;;;;;;;30.23;18.30;;;6.60;99.90;;;;;;4995029;28;20228;-74
2021/01/01 18:03:56;;;;;;;33.50;21.30;;;6.80;99.90;;;;;;4994682;28;20548;-75
2021/01/01 18:09:44;;;;;;;26.17;16.17;;;7.00;99.90;;;;;;4994731;28;20259;-74
2021/01/01 18:12:10;;;;;;;30.40;16.87;;;7.10;99.90;;;;;;4994638;28;20435;-73
2021/01/01 18:14:35;;;;;;;22.20;14.93;;;7.00;99.90;;;;;;4995107;28;20177;-78
2021/01/01 18:17:01;;;;;;;24.33;15.40;;;7.10;99.90;;;;;;4994276;28;20993;-72
2021/01/01 18:19:26;;;;;;;23.20;16.40;;;7.10;99.90;;;;;;4994366;28;20177;-74
2021/01/01 18:25:14;;;;;;;26.43;14.53;;;7.10;99.90;;;;;;4994521;28;20172;-78
2021/01/01 18:31:20;;;;;;;30.13;17.50;;;6.80;99.90;;;;;;4985476;28;20271;-79
2021/01/01 18:37:07;;;;;;;27.13;16.27;;;6.90;99.90;;;;;;4994353;28;20430;-81
2021/01/01 18:42:55;;;;;;;26.80;16.67;;;6.50;99.90;;;;;;4994255;28;20175;-79
2021/01/01 18:45:22;;;;;;;25.50;16.17;;;6.70;99.90;;;;;;4994406;28;20907;-81
2021/01/01 18:47:50;;;;;;;24.97;15.83;;;6.60;99.90;;;;;;4994505;28;20438;-84
2021/01/01 18:53:42;;;;;;;26.40;15.73;;;6.40;99.90;;;;;;4994228;28;20412;-78
2021/01/01 18:59:46;;;;;;;25.77;15.50;;;6.30;99.90;;;;;;4996186;28;20443;-81
2021/01/01 19:02:37;;;;;;;28.83;16.77;;;6.20;99.90;;;;;;4993293;28;20755;-79
2021/01/01 19:05:24;;;;;;;26.90;16.30;;;6.10;99.90;;;;;;4994192;28;20412;-81
2021/01/01 19:07:51;;;;;;;29.63;15.97;;;6.20;99.90;;;;;;4995652;28;20422;-80
2021/01/01 19:13:41;;;;;;;29.33;17.60;;;5.80;99.90;;;;;;4993947;28;20415;-79
2021/01/01 19:16:12;;;;;;;28.40;16.03;;;5.80;99.90;;;;;;4994148;28;20424;-78
2021/01/01 19:22:03;;;;;;;34.80;19.83;;;5.60;99.90;;;;;;4993892;28;20795;-75
2021/01/01 19:24:39;;;;;;;32.23;19.37;;;5.60;99.90;;;;;;4994017;28;20427;-75
2021/01/01 19:30:27;;;;;;;33.83;18.83;;;5.50;99.90;;;;;;4993445;28;20892;-77
2021/01/01 19:33:07;;;;;;;26.77;18.40;;;5.40;99.90;;;;;;4997248;28;20481;-78
2021/01/01 19:39:30;;;;;;;31.87;18.10;;;5.50;99.90;;;;;;5015227;28;20434;-84
2021/01/01 19:45:30;;;;;;;32.70;20.50;;;5.50;99.90;;;;;;4997662;28;20756;-90
2021/01/01 19:48:21;;;;;;;32.93;20.87;;;5.50;99.90;;;;;;4997894;28;20770;-87
2021/01/01 19:51:03;;;;;;;35.30;19.70;;;5.50;99.90;;;;;;4998295;28;20455;-88
2021/01/01 19:54:13;;;;;;;35.50;21.80;;;5.50;99.90;;;;;;4997768;28;20459;-90
2021/01/01 19:56:47;;;;;;;40.73;21.50;;;5.50;99.90;;;;;;4937601;29;20451;-87
2021/01/01 19:59:29;;;;;;;32.40;22.23;;;5.50;99.90;;;;;;4937579;29;20775;-88
2021/01/01 20:02:07;;;;;;;33.97;22.30;;;5.30;99.90;;;;;;4977751;28;20432;-85
2021/01/01 20:04:35;;;;;;;39.50;22.80;;;5.30;99.90;;;;;;4997322;28;20955;-87
2021/01/01 20:07:23;;;;;;;39.20;23.50;;;5.30;99.90;;;;;;4997285;28;20422;-83
2021/01/01 20:09:56;;;;;;;37.50;24.00;;;5.20;99.90;;;;;;4997363;28;20502;-86
2021/01/01 20:12:25;;;;;;;31.87;22.00;;;5.30;99.90;;;;;;4997540;28;20433;-87
2021/01/01 20:14:52;;;;;;;37.53;22.30;;;5.20;99.90;;;;;;4997384;28;20420;-91
2021/01/01 20:17:18;;;;;;;39.07;23.13;;;5.20;99.90;;;;;;4997237;28;20422;-89